sensor_id;sensor_type;location;lat;lon;timestamp;pressure;altitude;pressure_sealevel;temperature;humidity
59391;BME280;53405;57.012;40.984;2023-05-18T00:01:41;100713.31;;;14.90;67.31
59391;BME280;53405;57.012;40.984;2023-05-18T00:04:09;100713.88;;;14.85;66.93
59391;BME280;53405;57.012;40.984;2023-05-18T00:06:36;100716.50;;;14.85;67.24
59391;BME280;53405;57.012;40.984;2023-05-18T00:09:04;100716.72;;;14.84;67.29
59391;BME280;53405;57.012;40.984;2023-05-18T00:11:32;100714.72;;;14.86;67.19
59391;BME280;53405;57.012;40.984;2023-05-18T00:14:01;100722.22;;;14.82;67.70
59391;BME280;53405;57.012;40.984;2023-05-18T00:16:29;100718.97;;;14.87;66.95
59391;BME280;53405;57.012;40.984;2023-05-18T00:18:57;100726.31;;;14.85;67.21
59391;BME280;53405;57.012;40.984;2023-05-18T00:21:24;100727.34;;;14.84;67.05
59391;BME280;53405;57.012;40.984;2023-05-18T00:23:57;100723.41;;;14.79;67.27
59391;BME280;53405;57.012;40.984;2023-05-18T00:26:24;100717.00;;;14.74;67.32
59391;BME280;53405;57.012;40.984;2023-05-18T00:28:52;100729.75;;;14.63;67.87
59391;BME280;53405;57.012;40.984;2023-05-18T00:31:21;100726.28;;;14.63;67.39
59391;BME280;53405;57.012;40.984;2023-05-18T00:33:49;100731.66;;;14.55;67.55
59391;BME280;53405;57.012;40.984;2023-05-18T00:36:21;100726.53;;;14.53;67.83
59391;BME280;53405;57.012;40.984;2023-05-18T00:38:48;100722.44;;;14.51;67.71
59391;BME280;53405;57.012;40.984;2023-05-18T00:41:17;100712.31;;;14.39;68.42
59391;BME280;53405;57.012;40.984;2023-05-18T00:43:45;100720.91;;;14.41;68.66
59391;BME280;53405;57.012;40.984;2023-05-18T00:46:12;100721.84;;;14.34;68.78
59391;BME280;53405;57.012;40.984;2023-05-18T00:48:41;100703.84;;;14.14;69.04
59391;BME280;53405;57.012;40.984;2023-05-18T00:51:09;100730.41;;;14.36;69.28
59391;BME280;53405;57.012;40.984;2023-05-18T00:53:37;100716.91;;;14.31;69.13
59391;BME280;53405;57.012;40.984;2023-05-18T00:56:06;100731.81;;;14.32;69.46
59391;BME280;53405;57.012;40.984;2023-05-18T00:58:34;100725.28;;;14.34;69.30
59391;BME280;53405;57.012;40.984;2023-05-18T01:01:01;100719.44;;;14.39;69.24
59391;BME280;53405;57.012;40.984;2023-05-18T01:03:29;100728.69;;;14.43;69.50
59391;BME280;53405;57.012;40.984;2023-05-18T01:05:57;100727.69;;;14.29;69.59
59391;BME280;53405;57.012;40.984;2023-05-18T01:08:25;100717.53;;;14.33;69.16
59391;BME280;53405;57.012;40.984;2023-05-18T01:11:00;100726.31;;;14.33;68.67
59391;BME280;53405;57.012;40.984;2023-05-18T01:13:44;100717.44;;;14.26;68.21
59391;BME280;53405;57.012;40.984;2023-05-18T01:16:17;100718.44;;;14.25;68.13
59391;BME280;53405;57.012;40.984;2023-05-18T01:18:55;100720.03;;;14.19;68.36
59391;BME280;53405;57.012;40.984;2023-05-18T01:26:45;100717.66;;;14.09;68.12
59391;BME280;53405;57.012;40.984;2023-05-18T01:29:16;100726.22;;;14.12;68.45
59391;BME280;53405;57.012;40.984;2023-05-18T01:31:46;100695.47;;;13.96;68.13
59391;BME280;53405;57.012;40.984;2023-05-18T01:34:14;100727.31;;;14.17;68.29
59391;BME280;53405;57.012;40.984;2023-05-18T01:36:41;100727.41;;;14.24;68.38
59391;BME280;53405;57.012;40.984;2023-05-18T01:39:09;100696.28;;;14.11;67.87
59391;BME280;53405;57.012;40.984;2023-05-18T01:41:43;100719.72;;;14.29;68.05
59391;BME280;53405;57.012;40.984;2023-05-18T01:44:30;100724.47;;;14.34;67.77
59391;BME280;53405;57.012;40.984;2023-05-18T01:47:11;100727.75;;;14.36;67.79
59391;BME280;53405;57.012;40.984;2023-05-18T01:49:55;100719.56;;;14.31;68.44
59391;BME280;53405;57.012;40.984;2023-05-18T01:52:31;100723.00;;;14.31;68.58
59391;BME280;53405;57.012;40.984;2023-05-18T01:55:02;100717.88;;;14.44;67.55
59391;BME280;53405;57.012;40.984;2023-05-18T01:57:34;100726.28;;;14.48;67.56
59391;BME280;53405;57.012;40.984;2023-05-18T02:00:03;100728.81;;;14.56;nan
59391;BME280;53405;57.012;40.984;2023-05-18T02:02:46;100731.09;;;14.59;67.73
59391;BME280;53405;57.012;40.984;2023-05-18T02:05:16;100728.28;;;14.61;67.67
59391;BME280;53405;57.012;40.984;2023-05-18T02:07:43;100718.03;;;14.58;68.34
59391;BME280;53405;57.012;40.984;2023-05-18T02:10:13;100725.34;;;14.71;67.98
59391;BME280;53405;57.012;40.984;2023-05-18T02:12:41;100729.47;;;14.73;67.01
59391;BME280;53405;57.012;40.984;2023-05-18T02:15:10;100736.47;;;14.81;66.87
59391;BME280;53405;57.012;40.984;2023-05-18T02:17:38;100730.31;;;14.95;66.41
59391;BME280;53405;57.012;40.984;2023-05-18T02:20:26;100726.91;;;15.02;65.97
59391;BME280;53405;57.012;40.984;2023-05-18T02:22:58;100730.16;;;15.04;65.69
59391;BME280;53405;57.012;40.984;2023-05-18T02:25:26;100728.59;;;15.09;64.90
59391;BME280;53405;57.012;40.984;2023-05-18T02:27:54;100734.72;;;15.10;64.92
59391;BME280;53405;57.012;40.984;2023-05-18T02:30:21;100738.09;;;15.18;63.94
59391;BME280;53405;57.012;40.984;2023-05-18T02:32:51;100727.56;;;15.32;63.31
59391;BME280;53405;57.012;40.984;2023-05-18T02:35:19;100730.16;;;15.47;62.84
59391;BME280;53405;57.012;40.984;2023-05-18T02:37:47;100738.22;;;15.39;63.45
59391;BME280;53405;57.012;40.984;2023-05-18T02:40:16;100730.53;;;15.44;62.32
59391;BME280;53405;57.012;40.984;2023-05-18T02:42:44;100728.38;;;15.54;62.79
59391;BME280;53405;57.012;40.984;2023-05-18T02:45:12;100730.06;;;15.62;61.26
59391;BME280;53405;57.012;40.984;2023-05-18T02:47:42;100727.81;;;15.65;62.80
59391;BME280;53405;57.012;40.984;2023-05-18T02:50:12;100729.72;;;15.71;61.92
59391;BME280;53405;57.012;40.984;2023-05-18T02:52:44;100732.88;;;15.82;61.53
59391;BME280;53405;57.012;40.984;2023-05-18T02:55:12;100731.28;;;15.87;61.28
59391;BME280;53405;57.012;40.984;2023-05-18T02:58:12;100730.44;;;15.80;59.99
59391;BME280;53405;57.012;40.984;2023-05-18T03:01:00;100711.56;;;15.75;60.37
59391;BME280;53405;57.012;40.984;2023-05-18T03:03:37;100713.69;;;15.80;61.35
59391;BME280;53405;57.012;40.984;2023-05-18T03:06:05;100736.47;;;15.96;61.32
59391;BME280;53405;57.012;40.984;2023-05-18T03:08:35;100734.81;;;15.95;62.22
59391;BME280;53405;57.012;40.984;2023-05-18T03:11:09;100732.56;;;15.98;60.77
59391;BME280;53405;57.012;40.984;2023-05-18T03:13:37;100734.22;;;15.99;60.76
59391;BME280;53405;57.012;40.984;2023-05-18T03:16:04;100733.03;;;16.02;61.58
59391;BME280;53405;57.012;40.984;2023-05-18T03:18:32;100728.94;;;16.06;61.19
59391;BME280;53405;57.012;40.984;2023-05-18T03:21:01;100734.81;;;15.95;62.24
59391;BME280;53405;57.012;40.984;2023-05-18T03:23:29;100743.16;;;15.92;61.99
59391;BME280;53405;57.012;40.984;2023-05-18T03:25:57;100744.34;;;15.89;62.13
59391;BME280;53405;57.012;40.984;2023-05-18T03:28:28;100728.59;;;15.81;63.30
59391;BME280;53405;57.012;40.984;2023-05-18T03:30:56;100744.56;;;15.87;63.28
59391;BME280;53405;57.012;40.984;2023-05-18T03:33:25;100751.75;;;15.94;63.31
59391;BME280;53405;57.012;40.984;2023-05-18T03:35:53;100726.41;;;15.91;62.16
59391;BME280;53405;57.012;40.984;2023-05-18T03:38:20;100745.09;;;16.11;61.70
59391;BME280;53405;57.012;40.984;2023-05-18T03:40:56;100745.34;;;16.16;61.35
59391;BME280;53405;57.012;40.984;2023-05-18T03:43:24;100732.06;;;16.16;61.89
59391;BME280;53405;57.012;40.984;2023-05-18T03:45:52;100741.06;;;16.22;62.84
59391;BME280;53405;57.012;40.984;2023-05-18T03:48:21;100741.72;;;16.24;62.51
59391;BME280;53405;57.012;40.984;2023-05-18T03:50:49;100751.13;;;16.26;62.74
59391;BME280;53405;57.012;40.984;2023-05-18T03:53:19;100747.03;;;16.24;62.32
59391;BME280;53405;57.012;40.984;2023-05-18T03:55:47;100753.38;;;16.30;64.58
59391;BME280;53405;57.012;40.984;2023-05-18T03:58:19;100733.06;;;16.15;63.38
59391;BME280;53405;57.012;40.984;2023-05-18T04:00:47;100744.28;;;16.52;59.78
59391;BME280;53405;57.012;40.984;2023-05-18T04:03:16;100752.53;;;16.77;57.38
59391;BME280;53405;57.012;40.984;2023-05-18T04:05:43;100749.38;;;17.02;56.13
59391;BME280;53405;57.012;40.984;2023-05-18T04:08:11;100750.00;;;17.18;55.85
59391;BME280;53405;57.012;40.984;2023-05-18T04:10:41;100746.75;;;17.22;55.36
59391;BME280;53405;57.012;40.984;2023-05-18T04:13:10;100747.34;;;17.24;55.96
59391;BME280;53405;57.012;40.984;2023-05-18T04:15:38;100752.88;;;17.29;54.44
59391;BME280;53405;57.012;40.984;2023-05-18T04:18:06;100745.72;;;17.37;54.22
59391;BME280;53405;57.012;40.984;2023-05-18T04:20:35;100760.69;;;17.44;54.62
59391;BME280;53405;57.012;40.984;2023-05-18T04:23:04;100745.09;;;17.48;53.86
59391;BME280;53405;57.012;40.984;2023-05-18T04:25:32;100758.00;;;17.58;54.07
59391;BME280;53405;57.012;40.984;2023-05-18T04:28:00;100757.81;;;17.66;53.09
59391;BME280;53405;57.012;40.984;2023-05-18T04:30:28;100764.13;;;17.78;51.99
59391;BME280;53405;57.012;40.984;2023-05-18T04:32:56;100768.25;;;17.94;51.78
59391;BME280;53405;57.012;40.984;2023-05-18T04:35:27;100751.03;;;17.90;52.02
59391;BME280;53405;57.012;40.984;2023-05-18T04:37:54;100760.63;;;18.04;51.06
59391;BME280;53405;57.012;40.984;2023-05-18T04:40:24;100752.22;;;18.14;50.47
59391;BME280;53405;57.012;40.984;2023-05-18T04:42:52;100747.28;;;18.18;49.80
59391;BME280;53405;57.012;40.984;2023-05-18T04:45:25;100741.53;;;18.28;50.45
59391;BME280;53405;57.012;40.984;2023-05-18T04:47:55;100755.63;;;18.35;51.56
59391;BME280;53405;57.012;40.984;2023-05-18T04:50:24;100750.84;;;18.50;51.22
59391;BME280;53405;57.012;40.984;2023-05-18T04:52:52;100753.47;;;18.64;50.42
59391;BME280;53405;57.012;40.984;2023-05-18T04:55:25;100749.91;;;18.76;49.91
59391;BME280;53405;57.012;40.984;2023-05-18T04:57:56;100746.22;;;18.84;50.80
59391;BME280;53405;57.012;40.984;2023-05-18T05:00:27;100751.88;;;18.94;49.10
59391;BME280;53405;57.012;40.984;2023-05-18T05:02:56;100746.06;;;19.04;48.41
59391;BME280;53405;57.012;40.984;2023-05-18T05:05:24;100742.94;;;19.14;47.85
59391;BME280;53405;57.012;40.984;2023-05-18T05:07:53;100748.13;;;19.34;48.35
59391;BME280;53405;57.012;40.984;2023-05-18T05:10:21;100746.22;;;19.41;48.54
59391;BME280;53405;57.012;40.984;2023-05-18T05:12:50;100735.31;;;19.43;48.40
59391;BME280;53405;57.012;40.984;2023-05-18T05:15:19;100729.13;;;19.49;48.39
59391;BME280;53405;57.012;40.984;2023-05-18T05:17:48;100742.13;;;19.64;48.51
59391;BME280;53405;57.012;40.984;2023-05-18T05:20:17;100726.16;;;19.57;48.08
59391;BME280;53405;57.012;40.984;2023-05-18T05:22:46;100745.88;;;19.81;48.08
59391;BME280;53405;57.012;40.984;2023-05-18T05:25:20;100733.06;;;19.90;46.98
59391;BME280;53405;57.012;40.984;2023-05-18T05:27:47;100741.31;;;20.07;46.71
59391;BME280;53405;57.012;40.984;2023-05-18T05:30:19;100748.97;;;20.22;46.77
59391;BME280;53405;57.012;40.984;2023-05-18T05:32:47;100738.78;;;20.31;46.92
59391;BME280;53405;57.012;40.984;2023-05-18T05:35:15;100738.03;;;20.42;46.29
59391;BME280;53405;57.012;40.984;2023-05-18T05:37:44;100738.06;;;20.54;45.81
59391;BME280;53405;57.012;40.984;2023-05-18T05:40:12;100743.53;;;20.66;45.59
59391;BME280;53405;57.012;40.984;2023-05-18T05:42:46;100740.28;;;20.75;45.73
59391;BME280;53405;57.012;40.984;2023-05-18T05:45:14;100732.16;;;20.82;45.52
59391;BME280;53405;57.012;40.984;2023-05-18T05:47:52;100742.59;;;21.02;44.00
59391;BME280;53405;57.012;40.984;2023-05-18T05:50:22;100726.19;;;20.99;44.04
59391;BME280;53405;57.012;40.984;2023-05-18T05:52:52;100738.66;;;21.17;44.07
59391;BME280;53405;57.012;40.984;2023-05-18T05:55:22;100730.44;;;21.30;43.73
59391;BME280;53405;57.012;40.984;2023-05-18T05:57:51;100722.75;;;21.34;43.92
59391;BME280;53405;57.012;40.984;2023-05-18T06:00:19;100736.31;;;21.51;42.17
59391;BME280;53405;57.012;40.984;2023-05-18T06:02:47;100720.00;;;21.52;42.06
59391;BME280;53405;57.012;40.984;2023-05-18T06:05:22;100728.94;;;21.58;40.62
59391;BME280;53405;57.012;40.984;2023-05-18T06:07:51;100731.38;;;21.59;40.83
59391;BME280;53405;57.012;40.984;2023-05-18T06:10:19;100727.66;;;21.72;39.94
59391;BME280;53405;57.012;40.984;2023-05-18T06:12:46;100725.19;;;21.94;38.59
59391;BME280;53405;57.012;40.984;2023-05-18T06:15:14;100727.16;;;21.99;37.94
59391;BME280;53405;57.012;40.984;2023-05-18T06:17:42;100726.44;;;22.04;38.11
59391;BME280;53405;57.012;40.984;2023-05-18T06:20:11;100729.00;;;22.10;39.04
59391;BME280;53405;57.012;40.984;2023-05-18T06:22:40;100732.00;;;22.26;38.61
59391;BME280;53405;57.012;40.984;2023-05-18T06:25:22;100730.84;;;22.33;37.78
59391;BME280;53405;57.012;40.984;2023-05-18T06:28:08;100715.31;;;22.35;38.01
59391;BME280;53405;57.012;40.984;2023-05-18T06:30:45;100708.28;;;22.46;37.25
59391;BME280;53405;57.012;40.984;2023-05-18T06:33:20;100732.56;;;22.68;37.13
59391;BME280;53405;57.012;40.984;2023-05-18T06:35:49;100721.28;;;22.66;36.79
59391;BME280;53405;57.012;40.984;2023-05-18T06:38:17;100727.41;;;22.79;37.80
59391;BME280;53405;57.012;40.984;2023-05-18T06:40:45;100725.47;;;22.91;36.92
59391;BME280;53405;57.012;40.984;2023-05-18T06:43:15;100719.69;;;22.99;37.15
59391;BME280;53405;57.012;40.984;2023-05-18T06:45:48;100720.59;;;23.05;35.59
59391;BME280;53405;57.012;40.984;2023-05-18T06:48:28;100714.03;;;23.13;35.54
59391;BME280;53405;57.012;40.984;2023-05-18T06:50:57;100719.16;;;23.31;35.76
59391;BME280;53405;57.012;40.984;2023-05-18T06:53:25;100722.66;;;23.49;34.96
59391;BME280;53405;57.012;40.984;2023-05-18T06:55:54;100720.50;;;23.68;34.99
59391;BME280;53405;57.012;40.984;2023-05-18T06:58:23;100720.25;;;23.86;34.55
59391;BME280;53405;57.012;40.984;2023-05-18T07:00:51;100704.16;;;23.91;34.47
59391;BME280;53405;57.012;40.984;2023-05-18T07:03:22;100721.25;;;24.24;34.27
59391;BME280;53405;57.012;40.984;2023-05-18T07:05:49;100720.06;;;24.37;32.62
59391;BME280;53405;57.012;40.984;2023-05-18T07:08:17;100721.31;;;24.29;33.37
59391;BME280;53405;57.012;40.984;2023-05-18T07:10:44;100724.84;;;24.30;32.96
59391;BME280;53405;57.012;40.984;2023-05-18T07:13:12;100715.81;;;24.19;33.26
59391;BME280;53405;57.012;40.984;2023-05-18T07:15:40;100684.75;;;23.84;34.04
59391;BME280;53405;57.012;40.984;2023-05-18T07:18:08;100721.00;;;24.04;32.80
59391;BME280;53405;57.012;40.984;2023-05-18T07:20:35;100713.00;;;24.09;31.98
59391;BME280;53405;57.012;40.984;2023-05-18T07:23:05;100716.50;;;24.09;32.65
59391;BME280;53405;57.012;40.984;2023-05-18T07:25:33;100717.31;;;24.10;33.54
59391;BME280;53405;57.012;40.984;2023-05-18T07:28:00;100713.44;;;24.01;32.84
59391;BME280;53405;57.012;40.984;2023-05-18T07:30:28;100718.47;;;23.75;32.49
59391;BME280;53405;57.012;40.984;2023-05-18T07:32:56;100717.19;;;23.43;32.55
59391;BME280;53405;57.012;40.984;2023-05-18T07:35:23;100712.25;;;23.35;33.88
59391;BME280;53405;57.012;40.984;2023-05-18T07:37:52;100704.19;;;23.35;34.17
59391;BME280;53405;57.012;40.984;2023-05-18T07:40:20;100703.03;;;23.31;33.41
59391;BME280;53405;57.012;40.984;2023-05-18T07:42:48;100697.91;;;23.30;33.85
59391;BME280;53405;57.012;40.984;2023-05-18T07:45:16;100704.06;;;23.47;34.09
59391;BME280;53405;57.012;40.984;2023-05-18T07:47:43;100700.41;;;23.53;34.03
59391;BME280;53405;57.012;40.984;2023-05-18T07:50:11;100687.47;;;23.50;32.67
59391;BME280;53405;57.012;40.984;2023-05-18T07:52:39;100694.97;;;23.48;33.08
59391;BME280;53405;57.012;40.984;2023-05-18T07:55:07;100675.69;;;23.34;32.86
59391;BME280;53405;57.012;40.984;2023-05-18T07:57:35;100698.94;;;23.45;33.02
59391;BME280;53405;57.012;40.984;2023-05-18T08:00:03;100691.63;;;23.41;32.99
59391;BME280;53405;57.012;40.984;2023-05-18T08:02:39;100685.13;;;23.37;33.26
59391;BME280;53405;57.012;40.984;2023-05-18T08:05:07;100705.56;;;23.38;32.04
59391;BME280;53405;57.012;40.984;2023-05-18T08:07:37;100699.44;;;23.25;31.39
59391;BME280;53405;57.012;40.984;2023-05-18T08:10:05;100698.41;;;23.43;32.08
59391;BME280;53405;57.012;40.984;2023-05-18T08:12:33;100691.22;;;23.71;31.47
59391;BME280;53405;57.012;40.984;2023-05-18T08:15:00;100701.19;;;24.10;30.34
59391;BME280;53405;57.012;40.984;2023-05-18T08:17:32;100682.78;;;24.24;28.33
59391;BME280;53405;57.012;40.984;2023-05-18T08:20:01;100692.25;;;24.53;28.71
59391;BME280;53405;57.012;40.984;2023-05-18T08:22:31;100694.19;;;24.85;28.16
59391;BME280;53405;57.012;40.984;2023-05-18T08:24:59;100695.53;;;25.20;27.98
59391;BME280;53405;57.012;40.984;2023-05-18T08:27:30;100695.56;;;25.68;27.15
59391;BME280;53405;57.012;40.984;2023-05-18T08:29:58;100703.47;;;25.80;27.70
59391;BME280;53405;57.012;40.984;2023-05-18T08:32:25;100696.66;;;26.25;27.88
59391;BME280;53405;57.012;40.984;2023-05-18T08:34:54;100695.34;;;26.38;25.93
59391;BME280;53405;57.012;40.984;2023-05-18T08:37:21;100689.97;;;26.59;27.40
59391;BME280;53405;57.012;40.984;2023-05-18T08:39:55;100683.25;;;26.77;27.93
59391;BME280;53405;57.012;40.984;2023-05-18T08:42:33;100677.56;;;27.19;27.24
59391;BME280;53405;57.012;40.984;2023-05-18T08:45:49;100680.81;;;27.27;24.21
59391;BME280;53405;57.012;40.984;2023-05-18T08:48:21;100678.91;;;27.32;24.53
59391;BME280;53405;57.012;40.984;2023-05-18T08:50:50;100684.09;;;26.77;25.89
59391;BME280;53405;57.012;40.984;2023-05-18T08:53:20;100670.16;;;26.02;24.94
59391;BME280;53405;57.012;40.984;2023-05-18T08:55:54;100675.91;;;26.51;25.78
59391;BME280;53405;57.012;40.984;2023-05-18T08:58:33;100673.50;;;27.27;26.02
59391;BME280;53405;57.012;40.984;2023-05-18T09:01:26;100664.88;;;27.40;26.98
59391;BME280;53405;57.012;40.984;2023-05-18T09:04:22;100669.03;;;27.83;25.96
59391;BME280;53405;57.012;40.984;2023-05-18T09:06:52;100660.38;;;27.91;25.10
59391;BME280;53405;57.012;40.984;2023-05-18T09:09:21;100670.25;;;27.30;26.40
59391;BME280;53405;57.012;40.984;2023-05-18T09:11:50;100665.16;;;27.03;26.91
59391;BME280;53405;57.012;40.984;2023-05-18T09:14:20;100675.13;;;26.46;27.67
59391;BME280;53405;57.012;40.984;2023-05-18T09:16:52;100672.47;;;26.77;25.89
59391;BME280;53405;57.012;40.984;2023-05-18T09:19:20;100665.69;;;26.90;25.18
59391;BME280;53405;57.012;40.984;2023-05-18T09:21:47;100654.09;;;26.94;25.81
59391;BME280;53405;57.012;40.984;2023-05-18T09:24:15;100647.63;;;26.70;25.47
59391;BME280;53405;57.012;40.984;2023-05-18T09:26:45;100640.00;;;27.23;25.01
59391;BME280;53405;57.012;40.984;2023-05-18T09:29:20;100653.72;;;27.52;25.33
59391;BME280;53405;57.012;40.984;2023-05-18T09:31:48;100643.56;;;27.89;24.59
59391;BME280;53405;57.012;40.984;2023-05-18T09:34:17;100650.00;;;27.07;26.89
59391;BME280;53405;57.012;40.984;2023-05-18T09:36:48;100632.38;;;27.51;27.40
59391;BME280;53405;57.012;40.984;2023-05-18T09:39:16;100631.84;;;28.14;26.37
59391;BME280;53405;57.012;40.984;2023-05-18T09:41:43;100638.81;;;28.94;25.97
59391;BME280;53405;57.012;40.984;2023-05-18T09:44:11;100631.75;;;29.28;24.55
59391;BME280;53405;57.012;40.984;2023-05-18T09:46:39;100628.97;;;30.19;23.01
59391;BME280;53405;57.012;40.984;2023-05-18T09:49:07;100622.44;;;30.39;24.16
59391;BME280;53405;57.012;40.984;2023-05-18T09:51:38;100628.31;;;30.47;21.73
59391;BME280;53405;57.012;40.984;2023-05-18T09:54:07;100626.84;;;29.97;23.18
59391;BME280;53405;57.012;40.984;2023-05-18T09:56:37;100624.56;;;30.42;22.32
59391;BME280;53405;57.012;40.984;2023-05-18T09:59:12;100623.78;;;29.85;22.19
59391;BME280;53405;57.012;40.984;2023-05-18T10:01:57;100616.50;;;29.80;23.17
59391;BME280;53405;57.012;40.984;2023-05-18T10:04:37;100607.69;;;29.88;22.41
59391;BME280;53405;57.012;40.984;2023-05-18T10:07:12;100604.63;;;29.52;23.49
59391;BME280;53405;57.012;40.984;2023-05-18T10:09:42;100604.47;;;30.05;23.17
59391;BME280;53405;57.012;40.984;2023-05-18T10:12:15;100594.66;;;30.61;22.65
59391;BME280;53405;57.012;40.984;2023-05-18T10:14:45;100605.72;;;30.98;21.99
59391;BME280;53405;57.012;40.984;2023-05-18T10:17:14;100597.66;;;30.60;22.73
59391;BME280;53405;57.012;40.984;2023-05-18T10:19:43;100600.31;;;31.26;21.84
59391;BME280;53405;57.012;40.984;2023-05-18T10:22:16;100596.25;;;31.23;21.44
59391;BME280;53405;57.012;40.984;2023-05-18T10:24:49;100593.06;;;30.74;22.25
59391;BME280;53405;57.012;40.984;2023-05-18T10:27:23;100583.53;;;30.91;21.09
59391;BME280;53405;57.012;40.984;2023-05-18T10:29:57;100572.94;;;30.75;21.54
59391;BME280;53405;57.012;40.984;2023-05-18T10:32:25;100570.66;;;30.96;21.37
59391;BME280;53405;57.012;40.984;2023-05-18T10:34:55;100577.03;;;31.06;23.05
59391;BME280;53405;57.012;40.984;2023-05-18T10:37:23;100577.22;;;31.23;20.67
59391;BME280;53405;57.012;40.984;2023-05-18T10:39:54;100570.56;;;31.15;21.50
59391;BME280;53405;57.012;40.984;2023-05-18T10:42:24;100572.50;;;31.29;21.45
59391;BME280;53405;57.012;40.984;2023-05-18T10:44:53;100576.50;;;31.59;20.48
59391;BME280;53405;57.012;40.984;2023-05-18T10:47:29;100564.94;;;30.98;22.76
59391;BME280;53405;57.012;40.984;2023-05-18T10:49:58;100567.56;;;31.03;22.11
59391;BME280;53405;57.012;40.984;2023-05-18T10:52:31;100544.16;;;31.58;22.13
59391;BME280;53405;57.012;40.984;2023-05-18T10:55:00;100552.41;;;32.26;20.12
59391;BME280;53405;57.012;40.984;2023-05-18T10:57:42;100558.31;;;32.19;20.13
59391;BME280;53405;57.012;40.984;2023-05-18T11:00:12;100552.84;;;32.19;21.03
59391;BME280;53405;57.012;40.984;2023-05-18T11:02:40;100547.78;;;32.26;20.04
59391;BME280;53405;57.012;40.984;2023-05-18T11:05:10;100542.25;;;31.95;20.34
59391;BME280;53405;57.012;40.984;2023-05-18T11:07:38;100533.09;;;31.40;21.11
59391;BME280;53405;57.012;40.984;2023-05-18T11:10:10;100555.34;;;31.42;20.41
59391;BME280;53405;57.012;40.984;2023-05-18T11:12:40;100544.25;;;31.66;20.49
59391;BME280;53405;57.012;40.984;2023-05-18T11:15:08;100542.41;;;31.76;20.83
59391;BME280;53405;57.012;40.984;2023-05-18T11:17:35;100537.84;;;32.08;20.16
59391;BME280;53405;57.012;40.984;2023-05-18T11:22:46;100534.59;;;31.60;20.58
59391;BME280;53405;57.012;40.984;2023-05-18T11:27:56;100517.22;;;31.93;20.53
59391;BME280;53405;57.012;40.984;2023-05-18T11:36:08;100534.53;;;32.11;19.55
59391;BME280;53405;57.012;40.984;2023-05-18T11:38:51;100532.59;;;32.11;20.27
59391;BME280;53405;57.012;40.984;2023-05-18T11:41:38;100536.63;;;32.14;20.18
59391;BME280;53405;57.012;40.984;2023-05-18T11:49:24;100531.19;;;32.14;19.55
59391;BME280;53405;57.012;40.984;2023-05-18T11:54:41;100535.13;;;31.34;20.10
59391;BME280;53405;57.012;40.984;2023-05-18T11:57:10;100531.03;;;29.59;21.51
59391;BME280;53405;57.012;40.984;2023-05-18T11:59:40;100520.03;;;28.48;22.87
59391;BME280;53405;57.012;40.984;2023-05-18T12:02:09;100512.22;;;28.12;23.41
59391;BME280;53405;57.012;40.984;2023-05-18T12:04:45;100524.41;;;28.09;23.38
59391;BME280;53405;57.012;40.984;2023-05-18T12:07:14;100522.88;;;27.93;25.04
59391;BME280;53405;57.012;40.984;2023-05-18T12:09:42;100532.91;;;27.92;23.79
59391;BME280;53405;57.012;40.984;2023-05-18T12:12:11;100522.09;;;27.87;23.82
59391;BME280;53405;57.012;40.984;2023-05-18T12:14:40;100514.25;;;28.60;24.11
59391;BME280;53405;57.012;40.984;2023-05-18T12:17:11;100521.19;;;29.44;23.45
59391;BME280;53405;57.012;40.984;2023-05-18T12:19:43;100505.28;;;30.13;22.10
59391;BME280;53405;57.012;40.984;2023-05-18T12:22:11;100523.41;;;30.32;21.71
59391;BME280;53405;57.012;40.984;2023-05-18T12:24:40;100521.56;;;29.94;22.24
59391;BME280;53405;57.012;40.984;2023-05-18T12:27:09;100514.94;;;29.62;22.79
59391;BME280;53405;57.012;40.984;2023-05-18T12:29:38;100514.00;;;28.86;23.13
59391;BME280;53405;57.012;40.984;2023-05-18T12:32:10;100511.84;;;28.24;23.79
59391;BME280;53405;57.012;40.984;2023-05-18T12:34:38;100491.09;;;27.69;24.12
59391;BME280;53405;57.012;40.984;2023-05-18T12:37:30;100491.34;;;27.73;24.46
59391;BME280;53405;57.012;40.984;2023-05-18T12:40:00;100510.63;;;28.06;24.34
59391;BME280;53405;57.012;40.984;2023-05-18T12:42:28;100513.34;;;28.06;24.26
59391;BME280;53405;57.012;40.984;2023-05-18T12:44:56;100498.06;;;27.81;24.92
59391;BME280;53405;57.012;40.984;2023-05-18T12:47:23;100498.16;;;27.65;26.82
59391;BME280;53405;57.012;40.984;2023-05-18T12:49:51;100507.81;;;27.82;26.47
59391;BME280;53405;57.012;40.984;2023-05-18T12:52:19;100494.16;;;27.57;26.41
59391;BME280;53405;57.012;40.984;2023-05-18T12:54:47;100509.13;;;27.29;25.34
59391;BME280;53405;57.012;40.984;2023-05-18T12:57:18;100511.41;;;27.01;24.97
59391;BME280;53405;57.012;40.984;2023-05-18T12:59:47;100507.97;;;26.75;25.48
59391;BME280;53405;57.012;40.984;2023-05-18T13:02:35;100510.66;;;26.75;25.76
59391;BME280;53405;57.012;40.984;2023-05-18T13:05:08;100510.66;;;26.75;26.80
59391;BME280;53405;57.012;40.984;2023-05-18T13:07:45;100501.22;;;26.78;27.34
59391;BME280;53405;57.012;40.984;2023-05-18T13:10:15;100489.03;;;26.91;27.55
59391;BME280;53405;57.012;40.984;2023-05-18T13:12:47;100488.75;;;26.92;27.39
59391;BME280;53405;57.012;40.984;2023-05-18T13:15:20;100490.03;;;27.15;26.31
59391;BME280;53405;57.012;40.984;2023-05-18T13:17:55;100488.63;;;27.23;26.66
59391;BME280;53405;57.012;40.984;2023-05-18T13:20:35;100486.84;;;26.93;27.29
59391;BME280;53405;57.012;40.984;2023-05-18T13:23:10;100452.38;;;26.54;26.65